createdAt,value
2023-02-04T00:02:02.208Z,9.20
2023-02-04T00:04:28.943Z,8.50
2023-02-04T00:06:55.501Z,9.15
2023-02-04T00:09:22.069Z,8.90
2023-02-04T00:11:48.690Z,9.13
2023-02-04T00:14:15.225Z,9.15
2023-02-04T00:16:41.893Z,9.55
2023-02-04T00:19:08.497Z,9.35
2023-02-04T00:21:35.054Z,9.02
2023-02-04T00:24:01.608Z,9.95
2023-02-04T00:26:28.221Z,8.27
2023-02-04T00:28:54.835Z,8.63
2023-02-04T00:31:21.569Z,8.10
2023-02-04T00:33:48.492Z,8.82
2023-02-04T00:36:15.125Z,8.85
2023-02-04T00:38:41.720Z,8.60
2023-02-04T00:41:08.322Z,7.75
2023-02-04T00:43:34.849Z,8.85
2023-02-04T00:46:01.491Z,8.35
2023-02-04T00:48:29.015Z,7.90
2023-02-04T00:50:55.564Z,9.07
2023-02-04T00:53:22.211Z,8.77
2023-02-04T00:55:48.896Z,9.50
2023-02-04T00:58:15.481Z,8.52
2023-02-04T01:00:42.141Z,9.27
2023-02-04T01:03:09.280Z,9.15
2023-02-04T01:05:35.883Z,8.35
2023-02-04T01:08:02.418Z,7.80
2023-02-04T01:10:29.840Z,8.00
2023-02-04T01:12:56.776Z,8.10
2023-02-04T01:15:23.349Z,8.57
2023-02-04T01:17:50.301Z,7.63
2023-02-04T01:20:17.163Z,8.07
2023-02-04T01:22:43.732Z,8.23
2023-02-04T01:25:10.439Z,8.48
2023-02-04T01:27:37.029Z,7.20
2023-02-04T01:30:06.162Z,7.28
2023-02-04T01:32:32.845Z,7.25
2023-02-04T01:34:59.355Z,7.60
2023-02-04T01:37:25.883Z,7.25
2023-02-04T01:39:52.501Z,7.05
2023-02-04T01:42:19.173Z,6.22
2023-02-04T01:44:46.449Z,6.97
2023-02-04T01:47:13.178Z,6.53
2023-02-04T01:49:39.806Z,6.88
2023-02-04T01:52:06.656Z,5.78
2023-02-04T01:54:33.453Z,5.55
2023-02-04T01:57:00.095Z,6.00
2023-02-04T01:59:26.981Z,5.82
2023-02-04T02:01:54.757Z,5.70
2023-02-04T02:04:32.170Z,6.38
2023-02-04T02:07:03.305Z,5.95
2023-02-04T02:11:57.759Z,5.20
2023-02-04T02:14:24.447Z,5.22
2023-02-04T02:16:51.121Z,5.45
2023-02-04T02:19:28.551Z,5.35
2023-02-04T02:22:20.845Z,5.38
2023-02-04T02:24:47.394Z,5.35
2023-02-04T02:27:13.976Z,4.80
2023-02-04T02:29:42.553Z,4.70
2023-02-04T02:32:11.198Z,5.10
2023-02-04T02:34:39.496Z,5.13
2023-02-04T02:37:08.904Z,5.10
2023-02-04T02:39:38.685Z,5.32
2023-02-04T02:42:05.560Z,5.15
2023-02-04T02:44:35.296Z,4.78
2023-02-04T02:47:02.081Z,5.20
2023-02-04T02:49:31.714Z,4.93
2023-02-04T02:51:58.607Z,4.75
2023-02-04T02:54:29.268Z,4.22
2023-02-04T02:56:57.131Z,4.53
2023-02-04T02:59:24.574Z,4.43
2023-02-04T03:01:58.135Z,4.05
2023-02-04T03:04:26.600Z,4.50
2023-02-04T03:06:54.612Z,4.25
2023-02-04T03:09:21.249Z,4.50
2023-02-04T03:11:48.818Z,4.13
2023-02-04T03:14:15.654Z,3.63
2023-02-04T03:16:44.385Z,4.45
2023-02-04T03:19:12.843Z,4.45
2023-02-04T03:21:40.407Z,4.68
2023-02-04T03:24:07.160Z,3.75
2023-02-04T03:26:34.117Z,3.95
2023-02-04T03:29:00.913Z,3.72
2023-02-04T03:31:27.910Z,3.72
2023-02-04T03:33:54.522Z,5.38
2023-02-04T03:36:21.856Z,3.85
2023-02-04T03:38:48.489Z,3.28
2023-02-04T03:41:15.034Z,4.10
2023-02-04T03:43:41.643Z,3.53
2023-02-04T03:46:08.279Z,2.30
2023-02-04T03:48:34.919Z,1.85
2023-02-04T03:51:01.618Z,1.33
2023-02-04T03:53:28.405Z,1.08
2023-02-04T03:55:54.964Z,1.20
2023-02-04T03:58:21.597Z,1.10
2023-02-04T04:00:48.174Z,0.95
2023-02-04T04:03:14.781Z,0.90
2023-02-04T04:05:41.353Z,1.20
2023-02-04T04:08:07.954Z,1.08
2023-02-04T04:10:34.791Z,1.50
2023-02-04T04:13:01.555Z,1.13
2023-02-04T04:15:28.214Z,0.82
2023-02-04T04:17:54.868Z,0.90
2023-02-04T04:20:25.451Z,0.90
2023-02-04T04:22:52.580Z,0.90
2023-02-04T04:25:19.255Z,0.85
2023-02-04T04:27:45.812Z,0.90
2023-02-04T04:30:12.633Z,1.42
2023-02-04T04:32:39.268Z,1.10
2023-02-04T04:35:06.060Z,1.17
2023-02-04T04:37:34.740Z,1.25
2023-02-04T04:40:02.772Z,1.38
2023-02-04T04:42:29.419Z,1.42
2023-02-04T04:44:56.069Z,0.70
2023-02-04T04:47:22.670Z,0.82
2023-02-04T04:49:49.285Z,0.60
2023-02-04T04:52:15.852Z,0.80
2023-02-04T04:54:42.517Z,0.70
2023-02-04T04:57:09.123Z,0.80
2023-02-04T04:59:35.764Z,0.80
2023-02-04T05:02:02.294Z,0.75
2023-02-04T05:04:28.840Z,0.70
2023-02-04T05:06:55.449Z,0.90
2023-02-04T05:09:22.002Z,0.70
2023-02-04T05:11:48.576Z,0.88
2023-02-04T05:14:15.151Z,0.90
2023-02-04T05:16:41.795Z,0.73
2023-02-04T05:19:08.450Z,0.80
2023-02-04T05:21:35.011Z,0.70
2023-02-04T05:24:01.554Z,0.63
2023-02-04T05:26:30.745Z,0.75
2023-02-04T05:28:57.940Z,0.70
2023-02-04T05:31:24.511Z,1.27
2023-02-04T05:33:51.105Z,1.05
2023-02-04T05:36:18.005Z,1.08
2023-02-04T05:38:44.578Z,0.80
2023-02-04T05:41:11.164Z,0.77
2023-02-04T05:43:37.768Z,0.90
2023-02-04T05:46:04.455Z,1.48
2023-02-04T05:48:31.162Z,0.98
2023-02-04T05:50:58.176Z,1.10
2023-02-04T05:53:26.153Z,1.05
2023-02-04T05:55:52.865Z,0.77
2023-02-04T05:58:19.696Z,0.70
2023-02-04T06:00:46.233Z,0.98
2023-02-04T06:03:14.489Z,1.20
2023-02-04T06:05:41.257Z,1.10
2023-02-04T06:08:07.831Z,1.20
2023-02-04T06:10:34.556Z,1.02
2023-02-04T06:13:01.280Z,1.00
2023-02-04T06:15:27.852Z,1.38
2023-02-04T06:17:54.573Z,1.10
2023-02-04T06:20:21.204Z,1.08
2023-02-04T06:22:51.608Z,1.17
2023-02-04T06:25:18.801Z,1.35
2023-02-04T06:27:45.526Z,1.13
2023-02-04T06:30:13.043Z,1.10
2023-02-04T06:32:39.977Z,1.17
2023-02-04T06:35:07.108Z,1.15
2023-02-04T06:37:33.647Z,1.63
2023-02-04T06:40:00.224Z,1.50
2023-02-04T06:42:26.815Z,1.27
2023-02-04T06:44:53.658Z,1.52
2023-02-04T06:47:20.721Z,1.27
2023-02-04T06:49:47.370Z,1.70
2023-02-04T06:52:13.925Z,3.13
2023-02-04T06:54:40.447Z,24.58
2023-02-04T06:57:07.061Z,15.50
2023-02-04T06:59:35.189Z,11.98
2023-02-04T07:02:02.750Z,12.10
2023-02-04T07:04:29.368Z,16.90
2023-02-04T07:06:55.932Z,14.20
2023-02-04T07:09:22.504Z,10.68
2023-02-04T07:11:49.155Z,8.85
2023-02-04T07:14:15.766Z,8.25
2023-02-04T07:16:42.428Z,12.90
2023-02-04T07:19:08.986Z,8.60
2023-02-04T07:21:35.592Z,6.38
2023-02-04T07:24:02.236Z,6.47
2023-02-04T07:26:28.815Z,3.55
2023-02-04T07:28:55.476Z,3.67
2023-02-04T07:31:22.339Z,2.85
2023-02-04T07:33:49.007Z,2.42
2023-02-04T07:36:15.654Z,1.98
2023-02-04T07:38:42.212Z,2.35
2023-02-04T07:41:09.078Z,2.85
2023-02-04T07:43:35.767Z,1.85
2023-02-04T07:46:02.371Z,1.48
2023-02-04T07:48:29.017Z,1.60
2023-02-04T07:50:55.562Z,2.00
2023-02-04T07:53:22.108Z,1.70
2023-02-04T07:55:48.672Z,1.45
2023-02-04T07:58:15.257Z,1.63
2023-02-04T08:00:41.767Z,1.77
2023-02-04T08:03:08.444Z,1.50
2023-02-04T08:05:35.089Z,1.30
2023-02-04T08:08:02.140Z,1.80
2023-02-04T08:10:28.794Z,1.90
2023-02-04T08:12:55.327Z,1.30
2023-02-04T08:15:21.865Z,1.85
2023-02-04T08:17:48.452Z,1.30
2023-02-04T08:20:15.025Z,1.70
2023-02-04T08:22:41.550Z,1.65
2023-02-04T08:25:08.330Z,1.60
2023-02-04T08:27:34.895Z,2.42
2023-02-04T08:30:01.490Z,2.53
2023-02-04T08:32:29.375Z,2.25
2023-02-04T08:34:55.940Z,2.20
2023-02-04T08:37:22.486Z,3.05
2023-02-04T08:39:50.421Z,2.35
2023-02-04T08:42:17.021Z,2.85
2023-02-04T08:44:43.945Z,2.28
2023-02-04T08:47:11.094Z,3.45
2023-02-04T08:49:37.933Z,3.13
2023-02-04T08:52:06.135Z,2.40
2023-02-04T08:54:33.189Z,2.00
2023-02-04T08:56:59.790Z,4.65
2023-02-04T08:59:26.731Z,2.95
2023-02-04T09:01:53.578Z,3.03
2023-02-04T09:04:21.431Z,2.95
2023-02-04T09:06:48.814Z,3.40
2023-02-04T09:09:15.625Z,2.72
2023-02-04T09:11:43.144Z,2.55
2023-02-04T09:14:09.747Z,3.45
2023-02-04T09:16:36.400Z,3.08
2023-02-04T09:19:03.352Z,3.00
2023-02-04T09:21:30.430Z,3.00
2023-02-04T09:23:57.196Z,2.95
2023-02-04T09:26:23.836Z,2.95
2023-02-04T09:28:50.472Z,2.28
2023-02-04T09:31:18.012Z,3.47
2023-02-04T09:33:44.664Z,3.97
2023-02-04T09:36:11.239Z,3.30
2023-02-04T09:38:37.882Z,4.22
2023-02-04T09:41:07.827Z,2.67
2023-02-04T09:43:39.023Z,3.55
2023-02-04T09:46:06.279Z,2.60
2023-02-04T09:48:33.339Z,2.55
2023-02-04T09:51:07.480Z,3.25
2023-02-04T09:53:36.284Z,2.72
2023-02-04T09:56:02.846Z,2.60
2023-02-04T09:58:33.265Z,3.17
2023-02-04T10:01:09.322Z,3.45
2023-02-04T10:03:36.023Z,3.38
2023-02-04T10:06:02.885Z,2.85
2023-02-04T10:08:33.584Z,2.08
2023-02-04T10:11:01.240Z,3.08
2023-02-04T10:13:34.756Z,2.85
2023-02-04T10:16:03.951Z,3.33
2023-02-04T10:18:33.894Z,3.53
2023-02-04T10:21:21.347Z,3.78
2023-02-04T10:23:50.445Z,3.58
2023-02-04T10:26:17.987Z,3.55
2023-02-04T10:28:46.069Z,4.28
2023-02-04T10:31:38.615Z,3.97
2023-02-04T10:34:18.756Z,3.88
2023-02-04T10:36:48.100Z,3.75
2023-02-04T10:39:18.325Z,4.15
2023-02-04T10:41:51.969Z,4.32
2023-02-04T10:44:25.326Z,4.57
2023-02-04T10:47:06.143Z,3.80
2023-02-04T10:49:33.498Z,4.63
2023-02-04T10:52:01.147Z,5.28
2023-02-04T10:54:38.256Z,4.78
2023-02-04T10:57:17.989Z,3.78
2023-02-04T10:59:46.212Z,4.95
2023-02-04T11:02:33.458Z,5.68
2023-02-04T11:05:01.460Z,4.13
2023-02-04T11:07:29.260Z,3.67
2023-02-04T11:09:57.162Z,6.88
2023-02-04T11:12:43.185Z,7.38
2023-02-04T11:15:44.609Z,6.22
2023-02-04T11:18:20.583Z,5.22
2023-02-04T11:20:52.435Z,5.68
2023-02-04T11:23:32.253Z,4.18
2023-02-04T11:26:22.598Z,3.78
2023-02-04T11:29:01.500Z,4.60
2023-02-04T11:31:41.229Z,4.32
2023-02-04T11:34:07.834Z,4.35
2023-02-04T11:36:34.411Z,4.30
2023-02-04T11:39:14.506Z,3.47
2023-02-04T11:41:45.404Z,3.92
2023-02-04T11:44:13.302Z,4.30
2023-02-04T11:46:40.273Z,6.65
2023-02-04T11:49:18.421Z,4.47
2023-02-04T11:51:46.564Z,3.67
2023-02-04T11:54:17.159Z,3.47
2023-02-04T11:56:43.758Z,4.35
2023-02-04T11:59:12.491Z,4.75
2023-02-04T12:01:39.630Z,3.50
2023-02-04T12:04:21.109Z,4.38
2023-02-04T12:06:58.634Z,3.60
2023-02-04T12:09:27.727Z,4.72
2023-02-04T12:11:58.904Z,3.90
2023-02-04T12:14:34.029Z,3.72
2023-02-04T12:17:01.231Z,4.07
2023-02-04T12:19:28.338Z,5.00
2023-02-04T12:21:55.770Z,4.20
2023-02-04T12:24:22.347Z,7.18
2023-02-04T12:26:48.935Z,4.38
2023-02-04T12:29:15.777Z,6.47
2023-02-04T12:31:42.487Z,4.40
2023-02-04T12:34:09.142Z,3.63
2023-02-04T12:36:35.749Z,3.35
2023-02-04T12:39:03.134Z,4.05
2023-02-04T12:41:29.768Z,4.38
2023-02-04T12:43:56.356Z,5.35
2023-02-04T12:46:24.127Z,8.80
2023-02-04T12:48:50.885Z,4.15
2023-02-04T12:51:17.552Z,6.78
2023-02-04T12:53:44.121Z,9.15
2023-02-04T12:56:10.718Z,5.60
2023-02-04T12:58:37.359Z,5.75
2023-02-04T13:01:04.573Z,4.03
2023-02-04T13:03:31.866Z,5.18
2023-02-04T13:05:59.361Z,8.05
2023-02-04T13:08:26.019Z,5.43
2023-02-04T13:10:52.593Z,4.35
2023-02-04T13:13:20.823Z,3.58
2023-02-04T13:15:47.652Z,4.47
2023-02-04T13:18:17.102Z,3.72
2023-02-04T13:20:44.551Z,5.10
2023-02-04T13:23:11.136Z,5.32
2023-02-04T13:25:37.766Z,4.90
2023-02-04T13:28:04.430Z,5.70
2023-02-04T13:30:31.047Z,3.95
2023-02-04T13:32:57.687Z,4.03
2023-02-04T13:35:25.488Z,3.60
2023-02-04T13:37:52.060Z,3.92
2023-02-04T13:40:18.623Z,4.15
2023-02-04T13:42:45.502Z,3.63
2023-02-04T13:45:12.836Z,3.40
2023-02-04T13:47:39.725Z,3.65
2023-02-04T13:50:07.061Z,3.90
2023-02-04T13:52:34.478Z,4.10
2023-02-04T13:55:01.334Z,3.70
2023-02-04T13:57:28.135Z,4.18
2023-02-04T13:59:54.720Z,3.97
2023-02-04T14:02:23.597Z,3.60
2023-02-04T14:04:50.431Z,4.00
2023-02-04T14:07:17.313Z,4.30
2023-02-04T14:09:44.043Z,4.03
2023-02-04T14:12:10.876Z,4.53
2023-02-04T14:14:37.480Z,4.68
2023-02-04T14:17:04.358Z,3.95
2023-02-04T14:19:31.119Z,3.35
2023-02-04T14:21:58.495Z,3.80
2023-02-04T14:24:25.500Z,4.00
2023-02-04T14:26:52.310Z,3.20
2023-02-04T14:29:19.110Z,3.63
2023-02-04T14:31:45.799Z,4.40
2023-02-04T14:34:13.346Z,4.18
2023-02-04T14:36:40.151Z,3.58
2023-02-04T14:39:06.808Z,3.88
2023-02-04T14:41:33.631Z,4.07
2023-02-04T14:44:00.194Z,4.22
2023-02-04T14:46:26.827Z,3.10
2023-02-04T14:48:54.601Z,4.03
2023-02-04T14:51:21.235Z,3.72
2023-02-04T14:53:48.816Z,4.22
2023-02-04T14:56:16.432Z,3.72
2023-02-04T14:58:43.226Z,3.90
2023-02-04T15:01:09.902Z,4.20
2023-02-04T15:03:36.729Z,4.88
2023-02-04T15:06:03.768Z,3.83
2023-02-04T15:08:30.432Z,3.90
2023-02-04T15:10:57.220Z,3.38
2023-02-04T15:13:23.936Z,3.75
2023-02-04T15:15:50.513Z,3.13
2023-02-04T15:18:17.307Z,3.45
2023-02-04T15:20:43.900Z,3.55
2023-02-04T15:23:13.101Z,4.65
2023-02-04T15:25:40.300Z,3.83
2023-02-04T15:28:07.527Z,3.80
2023-02-04T15:30:34.440Z,3.60
2023-02-04T15:33:01.339Z,3.90
2023-02-04T15:35:27.966Z,3.55
2023-02-04T15:37:54.554Z,3.25
2023-02-04T15:40:21.160Z,3.58
2023-02-04T15:42:47.708Z,3.50
2023-02-04T15:45:14.311Z,3.83
2023-02-04T15:47:40.888Z,4.80
2023-02-04T15:50:10.876Z,3.90
2023-02-04T15:52:37.644Z,4.00
2023-02-04T15:55:04.521Z,4.15
2023-02-04T15:57:31.114Z,4.22
2023-02-04T15:59:58.229Z,4.28
2023-02-04T16:02:24.872Z,4.35
2023-02-04T16:04:51.640Z,4.90
2023-02-04T16:07:18.165Z,3.88
2023-02-04T16:09:44.742Z,3.85
2023-02-04T16:12:11.328Z,3.97
2023-02-04T16:14:37.979Z,5.10
2023-02-04T16:17:06.982Z,3.63
2023-02-04T16:19:33.792Z,4.60
2023-02-04T16:22:00.434Z,4.30
2023-02-04T16:24:27.253Z,4.15
2023-02-04T16:26:53.809Z,4.32
2023-02-04T16:29:20.365Z,4.57
2023-02-04T16:31:47.134Z,3.85
2023-02-04T16:34:13.927Z,5.18
2023-02-04T16:36:40.488Z,4.78
2023-02-04T16:39:07.141Z,4.68
2023-02-04T16:41:33.728Z,4.18
2023-02-04T16:44:00.365Z,4.40
2023-02-04T16:46:28.764Z,3.88
2023-02-04T16:48:55.417Z,4.32
2023-02-04T16:51:22.179Z,3.80
2023-02-04T16:53:48.830Z,3.75
2023-02-04T16:56:15.376Z,4.10
2023-02-04T16:58:41.933Z,3.85
2023-02-04T17:01:08.523Z,3.58
2023-02-04T17:03:35.118Z,3.95
2023-02-04T17:06:01.944Z,3.53
2023-02-04T17:08:29.567Z,4.22
2023-02-04T17:11:15.164Z,3.88
2023-02-04T17:13:41.732Z,3.60
2023-02-04T17:16:08.314Z,3.50
2023-02-04T17:18:35.106Z,3.70
2023-02-04T17:21:02.774Z,3.60
2023-02-04T17:23:29.449Z,4.68
2023-02-04T17:25:56.125Z,3.50
2023-02-04T17:28:24.295Z,4.05
2023-02-04T17:30:50.915Z,4.25
2023-02-04T17:33:17.583Z,7.68
2023-02-04T17:35:44.192Z,7.88
2023-02-04T17:38:10.746Z,7.93
2023-02-04T17:40:37.334Z,7.57
2023-02-04T17:43:04.104Z,7.70
2023-02-04T17:45:31.513Z,5.28
2023-02-04T17:47:58.296Z,5.70
2023-02-04T17:50:25.023Z,5.13
2023-02-04T17:52:52.543Z,4.90
2023-02-04T17:55:31.131Z,5.13
2023-02-04T17:58:07.126Z,5.00
2023-02-04T18:00:34.132Z,5.35
2023-02-04T18:03:00.949Z,4.95
2023-02-04T18:05:30.763Z,5.47
2023-02-04T18:08:18.772Z,4.90
2023-02-04T18:10:48.447Z,5.05
2023-02-04T18:13:23.382Z,5.35
2023-02-04T18:15:55.871Z,5.00
2023-02-04T18:18:37.460Z,5.18
2023-02-04T18:21:25.492Z,6.22
2023-02-04T18:24:10.886Z,5.32
2023-02-04T18:27:15.383Z,5.75
2023-02-04T18:29:45.122Z,4.80
2023-02-04T18:32:22.482Z,5.20
2023-02-04T18:34:55.112Z,5.22
2023-02-04T18:37:24.634Z,4.55
2023-02-04T18:39:51.348Z,4.22
2023-02-04T18:42:24.592Z,3.92
2023-02-04T18:44:52.514Z,3.90
2023-02-04T18:47:35.924Z,4.47
2023-02-04T18:50:22.021Z,3.83
2023-02-04T18:52:48.694Z,3.67
2023-02-04T18:55:23.152Z,3.92
2023-02-04T18:57:49.802Z,3.28
2023-02-04T19:00:26.225Z,4.22
2023-02-04T19:02:57.434Z,54.05
2023-02-04T19:08:05.963Z,7.75
2023-02-04T19:10:37.114Z,5.60
2023-02-04T19:15:43.994Z,4.38
2023-02-04T19:18:30.146Z,4.63
2023-02-04T19:21:08.039Z,5.47
2023-02-04T19:23:36.270Z,5.53
2023-02-04T19:26:21.861Z,5.50
2023-02-04T19:28:50.805Z,5.75
2023-02-04T19:31:17.464Z,5.85
2023-02-04T19:33:47.884Z,6.25
2023-02-04T19:36:35.802Z,5.95
2023-02-04T19:39:30.882Z,5.97
2023-02-04T19:42:00.430Z,5.47
2023-02-04T19:44:43.786Z,6.60
2023-02-04T19:47:27.254Z,6.45
2023-02-04T19:50:03.061Z,6.05
2023-02-04T19:52:36.843Z,6.93
2023-02-04T19:55:18.483Z,7.18
2023-02-04T19:57:46.430Z,7.68
2023-02-04T20:00:34.522Z,8.90
2023-02-04T20:03:02.644Z,7.50
2023-02-04T20:05:32.591Z,5.80
2023-02-04T20:08:37.169Z,9.77
2023-02-04T20:11:34.934Z,7.13
2023-02-04T20:14:10.399Z,7.30
2023-02-04T20:16:39.872Z,16.17
2023-02-04T20:19:19.417Z,12.40
2023-02-04T20:22:01.474Z,10.88
2023-02-04T20:24:35.699Z,6.72
2023-02-04T20:27:22.305Z,5.70
2023-02-04T20:29:53.524Z,6.00
2023-02-04T20:35:12.801Z,5.13
2023-02-04T20:37:41.103Z,6.68
2023-02-04T20:40:22.970Z,7.53
2023-02-04T20:43:20.208Z,8.35
2023-02-04T20:45:51.010Z,8.43
2023-02-04T20:48:17.610Z,8.38
2023-02-04T20:50:46.331Z,8.75
2023-02-04T20:53:25.116Z,8.05
2023-02-04T20:55:54.649Z,8.02
2023-02-04T20:58:28.209Z,10.00
2023-02-04T21:00:56.035Z,9.73
2023-02-04T21:03:37.108Z,10.88
2023-02-04T21:06:24.716Z,9.48
2023-02-04T21:08:53.619Z,8.98
2023-02-04T21:11:20.306Z,10.32
2023-02-04T21:13:47.606Z,10.10
2023-02-04T21:16:14.409Z,9.05
2023-02-04T21:18:41.023Z,9.50
2023-02-04T21:21:09.551Z,9.10
2023-02-04T21:23:37.033Z,8.85
2023-02-04T21:26:04.755Z,7.88
2023-02-04T21:28:32.433Z,7.85
2023-02-04T21:31:00.107Z,7.50
2023-02-04T21:33:27.201Z,13.63
2023-02-04T21:35:53.684Z,9.57
2023-02-04T21:38:20.284Z,8.48
2023-02-04T21:40:46.855Z,8.93
2023-02-04T21:43:13.423Z,8.70
2023-02-04T21:45:40.196Z,9.50
2023-02-04T21:48:10.287Z,8.45
2023-02-04T21:50:38.535Z,13.02
2023-02-04T21:53:06.936Z,9.57
2023-02-04T21:55:34.482Z,10.45
2023-02-04T21:58:01.693Z,9.05
2023-02-04T22:00:28.655Z,8.07
2023-02-04T22:02:55.532Z,8.55
2023-02-04T22:05:22.809Z,7.03
2023-02-04T22:07:50.467Z,6.25
2023-02-04T22:10:23.771Z,6.72
2023-02-04T22:12:50.356Z,7.50
2023-02-04T22:15:24.313Z,7.00
2023-02-04T22:17:53.111Z,6.60
2023-02-04T22:20:22.004Z,6.38
2023-02-04T22:22:49.700Z,6.00
2023-02-04T22:25:18.596Z,6.80
2023-02-04T22:27:45.211Z,7.57
2023-02-04T22:30:13.584Z,8.52
2023-02-04T22:32:40.506Z,8.02
2023-02-04T22:35:10.103Z,8.93
2023-02-04T22:37:38.233Z,7.97
2023-02-04T22:40:05.965Z,8.13
2023-02-04T22:42:32.860Z,8.10
2023-02-04T22:44:59.480Z,9.45
2023-02-04T22:47:26.188Z,8.85
2023-02-04T22:49:52.771Z,9.32
2023-02-04T22:52:19.333Z,7.63
2023-02-04T22:54:45.952Z,8.70
2023-02-04T22:57:12.653Z,10.38
2023-02-04T22:59:39.198Z,9.75
2023-02-04T23:02:05.888Z,9.43
2023-02-04T23:04:32.527Z,10.38
2023-02-04T23:07:00.780Z,12.00
2023-02-04T23:09:28.587Z,11.48
2023-02-04T23:11:56.772Z,9.63
2023-02-04T23:14:23.481Z,9.52
2023-02-04T23:16:51.313Z,9.95
2023-02-04T23:19:17.866Z,10.00
2023-02-04T23:21:44.457Z,10.35
2023-02-04T23:24:11.096Z,9.60
2023-02-04T23:26:37.645Z,9.70
2023-02-04T23:29:04.875Z,9.25
2023-02-04T23:31:31.476Z,8.98
2023-02-04T23:33:58.019Z,9.23
2023-02-04T23:36:24.584Z,7.85
2023-02-04T23:38:51.157Z,8.27
2023-02-04T23:41:17.742Z,8.52
2023-02-04T23:43:44.276Z,12.30
2023-02-04T23:46:11.449Z,11.35
2023-02-04T23:48:38.105Z,8.55
2023-02-04T23:51:04.726Z,8.52
2023-02-04T23:53:31.311Z,7.65
2023-02-04T23:55:57.937Z,9.48
2023-02-04T23:58:24.653Z,9.40
